UAE707 FSIA-FMMI
Flight info
| Callsign | UAE707 |
|---|---|
| Flight time | 2h 18m |
| Altitude | 40000 |
| Route | IMPOX1B IMPOX DCT NORSI/N0483F390 UL441 MIROV/N0482F400 UL441 GATLA DCT TAPAL TAPAL1D |
| Aircraft | A359/H-SDE2E3GHIJ3J4J5LM1ORWXY/LB1D1 |
Departure
| Time | 2026-04-18 07:15 |
|---|---|
| Airport | Seychelles International Airport (FSIA) |
Arrival
| Time | 2026-04-18 09:34 |
|---|---|
| Airport | Ivato International Airport (FMMI) |
| Time | Latitude | Longitude | Altitude | Speed | Heading |
|---|---|---|---|---|---|
| 2026-04-18 06:37 | -4.67027 | 55.51174 | 10 ft | 0 kts | 215° |
| 2026-04-18 06:40 | -4.66991 | 55.51095 | 27 ft | 0 kts | 215° |
| 2026-04-18 07:07 | -4.66974 | 55.51107 | 26 ft | 4 kts | 215° |
| 2026-04-18 07:07 | -4.66954 | 55.51121 | 26 ft | 4 kts | 226° |
| 2026-04-18 07:07 | -4.66942 | 55.51137 | 24 ft | 4 kts | 263° |
| 2026-04-18 07:07 | -4.66944 | 55.51155 | 25 ft | 4 kts | 305° |
| 2026-04-18 07:08 | -4.66960 | 55.51176 | 25 ft | 4 kts | 308° |
| 2026-04-18 07:08 | -4.66967 | 55.51184 | 25 ft | 1 kts | 306° |
| 2026-04-18 07:08 | -4.66967 | 55.51185 | 25 ft | 0 kts | 306° |
| 2026-04-18 07:11 | -4.66947 | 55.51175 | 25 ft | 7 kts | 348° |
| 2026-04-18 07:12 | -4.66875 | 55.51156 | 27 ft | 12 kts | 326° |
| 2026-04-18 07:12 | -4.66827 | 55.51096 | 27 ft | 0 kts | 303° |
| 2026-04-18 07:12 | -4.66824 | 55.51092 | 27 ft | 4 kts | 303° |
| 2026-04-18 07:13 | -4.66787 | 55.51044 | 27 ft | 13 kts | 320° |
| 2026-04-18 07:13 | -4.66701 | 55.51053 | 29 ft | 11 kts | 34° |
| 2026-04-18 07:13 | -4.66695 | 55.51102 | 30 ft | 6 kts | 126° |
| 2026-04-18 07:13 | -4.66699 | 55.51108 | 30 ft | 0 kts | 124° |
| 2026-04-18 07:15 | -4.66726 | 55.51147 | 30 ft | 32 kts | 124° |
| 2026-04-18 07:15 | -4.66994 | 55.51537 | 28 ft | 101 kts | 125° |
| 2026-04-18 07:15 | -4.67517 | 55.52296 | 33 ft | 159 kts | 124° |
| 2026-04-18 07:15 | -4.68132 | 55.53151 | 807 ft | 148 kts | 126° |
| 2026-04-18 07:16 | -4.68788 | 55.54004 | 1223 ft | 159 kts | 127° |
| 2026-04-18 07:16 | -4.69499 | 55.54919 | 1502 ft | 172 kts | 125° |
| 2026-04-18 07:16 | -4.70222 | 55.55919 | 1837 ft | 183 kts | 124° |
| 2026-04-18 07:16 | -4.70979 | 55.57006 | 2161 ft | 198 kts | 123° |
| 2026-04-18 07:17 | -4.71793 | 55.58166 | 2507 ft | 212 kts | 127° |
| 2026-04-18 07:17 | -4.73008 | 55.59067 | 2880 ft | 228 kts | 161° |
| 2026-04-18 07:17 | -4.74614 | 55.59070 | 3286 ft | 242 kts | 197° |
| 2026-04-18 07:17 | -4.76002 | 55.58071 | 3708 ft | 253 kts | 231° |
| 2026-04-18 07:18 | -4.77114 | 55.56672 | 4196 ft | 260 kts | 228° |
| 2026-04-18 07:18 | -4.78376 | 55.55355 | 4672 ft | 269 kts | 222° |
| 2026-04-18 07:18 | -4.79811 | 55.54112 | 5145 ft | 275 kts | 219° |
| 2026-04-18 07:18 | -4.81286 | 55.52864 | 5716 ft | 278 kts | 219° |
| 2026-04-18 07:19 | -4.82782 | 55.51601 | 6286 ft | 282 kts | 219° |
| 2026-04-18 07:19 | -4.84272 | 55.50348 | 6810 ft | 285 kts | 219° |
| 2026-04-18 07:19 | -4.85805 | 55.49062 | 7353 ft | 287 kts | 218° |
| 2026-04-18 07:19 | -4.87348 | 55.47770 | 7876 ft | 290 kts | 218° |
| 2026-04-18 07:20 | -4.88904 | 55.46467 | 8437 ft | 293 kts | 218° |
| 2026-04-18 07:20 | -4.90475 | 55.45152 | 8980 ft | 296 kts | 218° |
| 2026-04-18 07:20 | -4.91525 | 55.44273 | 9340 ft | 297 kts | 218° |
| 2026-04-18 07:20 | -4.93646 | 55.42499 | 9853 ft | 300 kts | 218° |
| 2026-04-18 07:21 | -4.94732 | 55.41590 | 9916 ft | 303 kts | 218° |
| 2026-04-18 07:21 | -4.96411 | 55.40187 | 9950 ft | 325 kts | 218° |
| 2026-04-18 07:21 | -4.98808 | 55.38184 | 9931 ft | 348 kts | 219° |
| 2026-04-18 07:21 | -5.00052 | 55.37142 | 9933 ft | 352 kts | 219° |
| 2026-04-18 07:22 | -5.01936 | 55.35564 | 9930 ft | 353 kts | 219° |
| 2026-04-18 07:22 | -5.03828 | 55.33980 | 9933 ft | 353 kts | 219° |
| 2026-04-18 07:22 | -5.05715 | 55.32399 | 9927 ft | 353 kts | 219° |
| 2026-04-18 07:22 | -5.07608 | 55.30813 | 9934 ft | 353 kts | 219° |
| 2026-04-18 07:23 | -5.09492 | 55.29236 | 9931 ft | 353 kts | 219° |
| 2026-04-18 07:23 | -5.11427 | 55.27715 | 9933 ft | 353 kts | 213° |
| 2026-04-18 07:23 | -5.13508 | 55.26395 | 10058 ft | 355 kts | 208° |
| 2026-04-18 07:23 | -5.15646 | 55.25212 | 10504 ft | 355 kts | 206° |
| 2026-04-18 07:24 | -5.17842 | 55.24065 | 11001 ft | 356 kts | 206° |
| 2026-04-18 07:24 | -5.20055 | 55.22928 | 11455 ft | 358 kts | 206° |
| 2026-04-18 07:24 | -5.22276 | 55.21780 | 11891 ft | 360 kts | 206° |
| 2026-04-18 07:24 | -5.24503 | 55.20614 | 12345 ft | 362 kts | 206° |
| 2026-04-18 07:25 | -5.26737 | 55.19429 | 12785 ft | 364 kts | 206° |
| 2026-04-18 07:25 | -5.28980 | 55.18229 | 13211 ft | 366 kts | 206° |
| 2026-04-18 07:25 | -5.31233 | 55.17017 | 13630 ft | 368 kts | 207° |
| 2026-04-18 07:25 | -5.33499 | 55.15797 | 14008 ft | 370 kts | 207° |
| 2026-04-18 07:26 | -5.35775 | 55.14569 | 14382 ft | 372 kts | 207° |
| 2026-04-18 07:26 | -5.38037 | 55.13351 | 14745 ft | 374 kts | 207° |
| 2026-04-18 07:26 | -5.40338 | 55.12111 | 15119 ft | 376 kts | 207° |
| 2026-04-18 07:26 | -5.42652 | 55.10866 | 15474 ft | 378 kts | 207° |
| 2026-04-18 07:27 | -5.44980 | 55.09613 | 15851 ft | 380 kts | 207° |
| 2026-04-18 07:27 | -5.47329 | 55.08349 | 16221 ft | 382 kts | 207° |
| 2026-04-18 07:27 | -5.49680 | 55.07084 | 16607 ft | 384 kts | 207° |
| 2026-04-18 07:27 | -5.52047 | 55.05809 | 16969 ft | 386 kts | 207° |
| 2026-04-18 07:28 | -5.54425 | 55.04529 | 17343 ft | 388 kts | 207° |
| 2026-04-18 07:28 | -5.56784 | 55.03260 | 17700 ft | 390 kts | 207° |
| 2026-04-18 07:28 | -5.59189 | 55.01966 | 18057 ft | 392 kts | 207° |
| 2026-04-18 07:28 | -5.61605 | 55.00665 | 18370 ft | 395 kts | 207° |
| 2026-04-18 07:29 | -5.64031 | 54.99359 | 18676 ft | 397 kts | 207° |
| 2026-04-18 07:29 | -5.66471 | 54.98046 | 18988 ft | 398 kts | 207° |
| 2026-04-18 07:29 | -5.68930 | 54.96722 | 19290 ft | 400 kts | 207° |
| 2026-04-18 07:29 | -5.71366 | 54.95409 | 19593 ft | 402 kts | 207° |
| 2026-04-18 07:30 | -5.73836 | 54.94078 | 19913 ft | 403 kts | 208° |
| 2026-04-18 07:30 | -5.76322 | 54.92738 | 20201 ft | 405 kts | 208° |
| 2026-04-18 07:30 | -5.78816 | 54.91394 | 20507 ft | 407 kts | 208° |
| 2026-04-18 07:30 | -5.81292 | 54.90059 | 20805 ft | 409 kts | 208° |
| 2026-04-18 07:31 | -5.83809 | 54.88701 | 21104 ft | 411 kts | 208° |
| 2026-04-18 07:31 | -5.86334 | 54.87340 | 21405 ft | 413 kts | 208° |
| 2026-04-18 07:31 | -5.88879 | 54.85968 | 21691 ft | 415 kts | 208° |
| 2026-04-18 07:31 | -5.91405 | 54.84607 | 21972 ft | 416 kts | 208° |
| 2026-04-18 07:32 | -5.93967 | 54.83226 | 22247 ft | 418 kts | 209° |
| 2026-04-18 07:32 | -5.96538 | 54.81839 | 22532 ft | 420 kts | 209° |
| 2026-04-18 07:32 | -5.99130 | 54.80441 | 22814 ft | 422 kts | 209° |
| 2026-04-18 07:32 | -6.01724 | 54.79041 | 23094 ft | 424 kts | 209° |
| 2026-04-18 07:33 | -6.04329 | 54.77637 | 23352 ft | 425 kts | 209° |
| 2026-04-18 07:33 | -6.06917 | 54.76241 | 23596 ft | 427 kts | 209° |
| 2026-04-18 07:33 | -6.09545 | 54.74822 | 23810 ft | 429 kts | 209° |
| 2026-04-18 07:33 | -6.12180 | 54.73400 | 24030 ft | 430 kts | 209° |
| 2026-04-18 07:34 | -6.14825 | 54.71974 | 24237 ft | 432 kts | 209° |
| 2026-04-18 07:34 | -6.17460 | 54.70553 | 24472 ft | 433 kts | 209° |
| 2026-04-18 07:34 | -6.20119 | 54.69119 | 24686 ft | 435 kts | 209° |
| 2026-04-18 07:34 | -6.22795 | 54.67674 | 24892 ft | 436 kts | 209° |
| 2026-04-18 07:35 | -6.25476 | 54.66226 | 25102 ft | 438 kts | 209° |
| 2026-04-18 07:35 | -6.28163 | 54.64775 | 25329 ft | 439 kts | 209° |
| 2026-04-18 07:35 | -6.30865 | 54.63315 | 25538 ft | 440 kts | 210° |
| 2026-04-18 07:35 | -6.33572 | 54.61853 | 25752 ft | 442 kts | 210° |
| 2026-04-18 07:36 | -6.36295 | 54.60383 | 25969 ft | 443 kts | 210° |
| 2026-04-18 07:36 | -6.38979 | 54.58933 | 26185 ft | 445 kts | 210° |
| 2026-04-18 07:36 | -6.41717 | 54.57454 | 26397 ft | 446 kts | 210° |
| 2026-04-18 07:36 | -6.44470 | 54.55967 | 26634 ft | 448 kts | 210° |
| 2026-04-18 07:37 | -6.47197 | 54.54493 | 27035 ft | 451 kts | 210° |
| 2026-04-18 07:37 | -6.49971 | 54.52993 | 27525 ft | 453 kts | 210° |
| 2026-04-18 07:37 | -6.52763 | 54.51484 | 27990 ft | 456 kts | 210° |
| 2026-04-18 07:37 | -6.55574 | 54.49965 | 28426 ft | 459 kts | 210° |
| 2026-04-18 07:38 | -6.58402 | 54.48435 | 28860 ft | 462 kts | 210° |
| 2026-04-18 07:38 | -6.61219 | 54.46912 | 29270 ft | 466 kts | 211° |
| 2026-04-18 07:38 | -6.64084 | 54.45362 | 29696 ft | 469 kts | 211° |
| 2026-04-18 07:38 | -6.66971 | 54.43800 | 30086 ft | 472 kts | 211° |
| 2026-04-18 07:39 | -6.69883 | 54.42225 | 30439 ft | 475 kts | 211° |
| 2026-04-18 07:39 | -6.72806 | 54.40644 | 30818 ft | 476 kts | 211° |
| 2026-04-18 07:39 | -6.75700 | 54.39078 | 31201 ft | 478 kts | 211° |
| 2026-04-18 07:39 | -6.78635 | 54.37490 | 31565 ft | 479 kts | 211° |
| 2026-04-18 07:40 | -6.81579 | 54.35898 | 31950 ft | 481 kts | 211° |
| 2026-04-18 07:40 | -6.84535 | 54.34297 | 32307 ft | 482 kts | 211° |
| 2026-04-18 07:40 | -6.87504 | 54.32691 | 32667 ft | 484 kts | 211° |
| 2026-04-18 07:40 | -6.90447 | 54.31097 | 32991 ft | 485 kts | 211° |
| 2026-04-18 07:41 | -6.93434 | 54.29479 | 33331 ft | 487 kts | 211° |
| 2026-04-18 07:41 | -6.96433 | 54.27855 | 33651 ft | 489 kts | 211° |
| 2026-04-18 07:41 | -6.99436 | 54.26228 | 33957 ft | 490 kts | 211° |
| 2026-04-18 07:41 | -7.02445 | 54.24598 | 34208 ft | 492 kts | 211° |
| 2026-04-18 07:42 | -7.05437 | 54.22976 | 34446 ft | 493 kts | 211° |
| 2026-04-18 07:42 | -7.08471 | 54.21332 | 34708 ft | 494 kts | 211° |
| 2026-04-18 07:42 | -7.11501 | 54.19691 | 35063 ft | 492 kts | 211° |
| 2026-04-18 07:42 | -7.14478 | 54.18078 | 35425 ft | 491 kts | 211° |
| 2026-04-18 07:43 | -7.17484 | 54.16449 | 35787 ft | 489 kts | 211° |
| 2026-04-18 07:43 | -7.20479 | 54.14826 | 36092 ft | 489 kts | 211° |
| 2026-04-18 07:43 | -7.23479 | 54.13198 | 36420 ft | 488 kts | 211° |
| 2026-04-18 07:43 | -7.26473 | 54.11575 | 36745 ft | 487 kts | 211° |
| 2026-04-18 07:44 | -7.29415 | 54.09970 | 37054 ft | 486 kts | 211° |
| 2026-04-18 07:44 | -7.32390 | 54.08335 | 37352 ft | 485 kts | 211° |
| 2026-04-18 07:44 | -7.35365 | 54.06697 | 37657 ft | 485 kts | 212° |
| 2026-04-18 07:44 | -7.38291 | 54.05085 | 37950 ft | 484 kts | 212° |
| 2026-04-18 07:45 | -7.41244 | 54.03459 | 38239 ft | 483 kts | 212° |
| 2026-04-18 07:45 | -7.44200 | 54.01832 | 38497 ft | 483 kts | 212° |
| 2026-04-18 07:45 | -7.47145 | 54.00213 | 38744 ft | 482 kts | 212° |
| 2026-04-18 07:45 | -7.50097 | 53.98590 | 38962 ft | 482 kts | 211° |
| 2026-04-18 07:46 | -7.53015 | 53.96986 | 39173 ft | 481 kts | 212° |
| 2026-04-18 07:46 | -7.55960 | 53.95368 | 39391 ft | 481 kts | 212° |
| 2026-04-18 07:46 | -7.58902 | 53.93750 | 39627 ft | 479 kts | 212° |
| 2026-04-18 07:46 | -7.61831 | 53.92140 | 39848 ft | 479 kts | 212° |
| 2026-04-18 07:47 | -7.67686 | 53.88920 | 39934 ft | 478 kts | 212° |
| 2026-04-18 07:47 | -7.73499 | 53.85721 | 39925 ft | 477 kts | 212° |
| 2026-04-18 07:48 | -7.79328 | 53.82513 | 39931 ft | 477 kts | 212° |
| 2026-04-18 07:48 | -7.85124 | 53.79321 | 39929 ft | 476 kts | 212° |
| 2026-04-18 07:49 | -7.90955 | 53.76111 | 39926 ft | 476 kts | 212° |
| 2026-04-18 07:49 | -7.96734 | 53.72927 | 39931 ft | 475 kts | 212° |
| 2026-04-18 07:50 | -8.02544 | 53.69726 | 39933 ft | 474 kts | 212° |
| 2026-04-18 07:50 | -8.08269 | 53.66571 | 39930 ft | 465 kts | 212° |
| 2026-04-18 07:51 | -8.13885 | 53.63479 | 39934 ft | 456 kts | 212° |
| 2026-04-18 07:51 | -8.19448 | 53.60408 | 39938 ft | 458 kts | 213° |
| 2026-04-18 07:52 | -8.25055 | 53.57309 | 39939 ft | 457 kts | 213° |
| 2026-04-18 07:52 | -8.30594 | 53.54252 | 39940 ft | 455 kts | 213° |
| 2026-04-18 07:53 | -8.36156 | 53.51181 | 39925 ft | 455 kts | 213° |
| 2026-04-18 07:53 | -8.41714 | 53.48111 | 39929 ft | 455 kts | 213° |
| 2026-04-18 07:54 | -8.47266 | 53.45044 | 39952 ft | 454 kts | 213° |
| 2026-04-18 07:54 | -8.52783 | 53.41994 | 39934 ft | 454 kts | 213° |
| 2026-04-18 07:55 | -8.58339 | 53.38922 | 39933 ft | 454 kts | 213° |
| 2026-04-18 07:55 | -8.63865 | 53.35866 | 39939 ft | 454 kts | 213° |
| 2026-04-18 07:56 | -8.69422 | 53.32791 | 39936 ft | 454 kts | 213° |
| 2026-04-18 07:56 | -8.74969 | 53.29722 | 39939 ft | 454 kts | 213° |
| 2026-04-18 07:57 | -8.80526 | 53.26645 | 39939 ft | 454 kts | 213° |
| 2026-04-18 07:57 | -8.86041 | 53.23591 | 39938 ft | 454 kts | 213° |
| 2026-04-18 07:58 | -8.94374 | 53.18973 | 39938 ft | 454 kts | 213° |
| 2026-04-18 07:59 | -8.99897 | 53.15912 | 39939 ft | 454 kts | 213° |
| 2026-04-18 07:59 | -9.05448 | 53.12834 | 39941 ft | 454 kts | 213° |
| 2026-04-18 08:00 | -9.10992 | 53.09758 | 39942 ft | 454 kts | 213° |
| 2026-04-18 08:00 | -9.16538 | 53.06681 | 39938 ft | 454 kts | 213° |
| 2026-04-18 08:01 | -9.22054 | 53.03619 | 39940 ft | 454 kts | 213° |
| 2026-04-18 08:01 | -9.27567 | 53.00557 | 39941 ft | 454 kts | 213° |
| 2026-04-18 08:02 | -9.33111 | 52.97478 | 39943 ft | 454 kts | 213° |
| 2026-04-18 08:02 | -9.38649 | 52.94401 | 39944 ft | 453 kts | 213° |
| 2026-04-18 08:03 | -9.44198 | 52.91316 | 39946 ft | 453 kts | 213° |
| 2026-04-18 08:03 | -9.49708 | 52.88251 | 39946 ft | 453 kts | 213° |
| 2026-04-18 08:04 | -9.55247 | 52.85170 | 39946 ft | 453 kts | 213° |
| 2026-04-18 08:04 | -9.60746 | 52.82109 | 39945 ft | 453 kts | 213° |
| 2026-04-18 08:05 | -9.66295 | 52.79020 | 39945 ft | 453 kts | 213° |
| 2026-04-18 08:05 | -9.71828 | 52.75938 | 39948 ft | 453 kts | 213° |
| 2026-04-18 08:06 | -9.77337 | 52.72869 | 39951 ft | 453 kts | 213° |
| 2026-04-18 08:06 | -9.82877 | 52.69781 | 39947 ft | 453 kts | 214° |
| 2026-04-18 08:07 | -9.88419 | 52.66691 | 39948 ft | 453 kts | 214° |
| 2026-04-18 08:07 | -9.93929 | 52.63618 | 39950 ft | 453 kts | 214° |
| 2026-04-18 08:08 | -9.99431 | 52.60547 | 39950 ft | 453 kts | 214° |
| 2026-04-18 08:08 | -10.04977 | 52.57454 | 39946 ft | 454 kts | 214° |
| 2026-04-18 08:09 | -10.10515 | 52.54363 | 39947 ft | 453 kts | 214° |
| 2026-04-18 08:09 | -10.16048 | 52.51274 | 39948 ft | 453 kts | 214° |
| 2026-04-18 08:10 | -10.21550 | 52.48201 | 39944 ft | 453 kts | 214° |
| 2026-04-18 08:10 | -10.27086 | 52.45107 | 39947 ft | 453 kts | 214° |
| 2026-04-18 08:11 | -10.32590 | 52.42031 | 39949 ft | 453 kts | 214° |
| 2026-04-18 08:11 | -10.37199 | 52.39454 | 39945 ft | 453 kts | 214° |
| 2026-04-18 08:12 | -10.42750 | 52.36348 | 39955 ft | 454 kts | 214° |
| 2026-04-18 08:12 | -10.48256 | 52.33267 | 39946 ft | 453 kts | 214° |
| 2026-04-18 08:13 | -10.53788 | 52.30171 | 39951 ft | 453 kts | 214° |
| 2026-04-18 08:13 | -10.59291 | 52.27088 | 39950 ft | 453 kts | 214° |
| 2026-04-18 08:14 | -10.64840 | 52.23979 | 39949 ft | 454 kts | 214° |
| 2026-04-18 08:14 | -10.70374 | 52.20877 | 39949 ft | 454 kts | 214° |
| 2026-04-18 08:15 | -10.75883 | 52.17788 | 39948 ft | 454 kts | 214° |
| 2026-04-18 08:15 | -10.81425 | 52.14679 | 39950 ft | 454 kts | 214° |
| 2026-04-18 08:16 | -10.86941 | 52.11583 | 39945 ft | 454 kts | 214° |
| 2026-04-18 08:16 | -10.92479 | 52.08473 | 39947 ft | 454 kts | 214° |
| 2026-04-18 08:17 | -10.97998 | 52.05374 | 39947 ft | 454 kts | 214° |
| 2026-04-18 08:17 | -11.03539 | 52.02260 | 39950 ft | 454 kts | 214° |
| 2026-04-18 08:18 | -11.09090 | 51.99139 | 39946 ft | 454 kts | 214° |
| 2026-04-18 08:18 | -11.14607 | 51.96036 | 39948 ft | 455 kts | 214° |
| 2026-04-18 08:19 | -11.20154 | 51.92914 | 39946 ft | 455 kts | 214° |
| 2026-04-18 08:19 | -11.25719 | 51.89779 | 39952 ft | 461 kts | 214° |
| 2026-04-18 08:20 | -11.31366 | 51.86594 | 39953 ft | 470 kts | 214° |
| 2026-04-18 08:20 | -11.37153 | 51.83332 | 39954 ft | 478 kts | 213° |
| 2026-04-18 08:21 | -11.42991 | 51.80045 | 39952 ft | 478 kts | 213° |
| 2026-04-18 08:21 | -11.48783 | 51.76783 | 39954 ft | 478 kts | 213° |
| 2026-04-18 08:22 | -11.54637 | 51.73481 | 39952 ft | 478 kts | 213° |
| 2026-04-18 08:22 | -11.60424 | 51.70214 | 39952 ft | 478 kts | 213° |
| 2026-04-18 08:23 | -11.66258 | 51.66919 | 39953 ft | 478 kts | 213° |
| 2026-04-18 08:23 | -11.72063 | 51.63646 | 39953 ft | 478 kts | 213° |
| 2026-04-18 08:24 | -11.77886 | 51.60359 | 39957 ft | 478 kts | 213° |
| 2026-04-18 08:24 | -11.83729 | 51.57058 | 39958 ft | 478 kts | 213° |
| 2026-04-18 08:25 | -11.89525 | 51.53783 | 39958 ft | 478 kts | 213° |
| 2026-04-18 08:25 | -11.95368 | 51.50481 | 39959 ft | 478 kts | 213° |
| 2026-04-18 08:26 | -12.01163 | 51.47204 | 39958 ft | 478 kts | 213° |
| 2026-04-18 08:26 | -12.06998 | 51.43903 | 39957 ft | 478 kts | 213° |
| 2026-04-18 08:27 | -12.12829 | 51.40603 | 39958 ft | 478 kts | 213° |
| 2026-04-18 08:27 | -12.18619 | 51.37331 | 39961 ft | 478 kts | 213° |
| 2026-04-18 08:28 | -12.24451 | 51.34028 | 39956 ft | 478 kts | 213° |
| 2026-04-18 08:28 | -12.30236 | 51.30749 | 39962 ft | 478 kts | 213° |
| 2026-04-18 08:29 | -12.36053 | 51.27453 | 39960 ft | 477 kts | 213° |
| 2026-04-18 08:29 | -12.41876 | 51.24151 | 39963 ft | 477 kts | 213° |
| 2026-04-18 08:30 | -12.47692 | 51.20853 | 39959 ft | 477 kts | 213° |
| 2026-04-18 08:30 | -12.53476 | 51.17570 | 39962 ft | 477 kts | 213° |
| 2026-04-18 08:31 | -12.59291 | 51.14268 | 39964 ft | 477 kts | 213° |
| 2026-04-18 08:31 | -12.65080 | 51.10979 | 39962 ft | 477 kts | 213° |
| 2026-04-18 08:32 | -12.70893 | 51.07675 | 39966 ft | 477 kts | 213° |
| 2026-04-18 08:32 | -12.76688 | 51.04379 | 39966 ft | 477 kts | 213° |
| 2026-04-18 08:33 | -12.82475 | 51.01086 | 39966 ft | 477 kts | 213° |
| 2026-04-18 08:33 | -12.88284 | 50.97779 | 39968 ft | 478 kts | 213° |
| 2026-04-18 08:34 | -12.94114 | 50.94457 | 39968 ft | 478 kts | 213° |
| 2026-04-18 08:34 | -12.99898 | 50.91161 | 39967 ft | 478 kts | 213° |
| 2026-04-18 08:35 | -13.05718 | 50.87843 | 39970 ft | 478 kts | 213° |
| 2026-04-18 08:35 | -13.11500 | 50.84543 | 39970 ft | 478 kts | 213° |
| 2026-04-18 08:36 | -13.17324 | 50.81219 | 39969 ft | 478 kts | 213° |
| 2026-04-18 08:36 | -13.23140 | 50.77897 | 39969 ft | 478 kts | 213° |
| 2026-04-18 08:37 | -13.28921 | 50.74593 | 39971 ft | 478 kts | 213° |
| 2026-04-18 08:37 | -13.34740 | 50.71265 | 39970 ft | 478 kts | 213° |
| 2026-04-18 08:38 | -13.40523 | 50.67956 | 39970 ft | 478 kts | 212° |
| 2026-04-18 08:38 | -13.46342 | 50.64626 | 39975 ft | 478 kts | 212° |
| 2026-04-18 08:39 | -13.52152 | 50.61298 | 39975 ft | 478 kts | 212° |
| 2026-04-18 08:39 | -13.57939 | 50.57982 | 39975 ft | 478 kts | 212° |
| 2026-04-18 08:40 | -13.63759 | 50.54646 | 39975 ft | 477 kts | 212° |
| 2026-04-18 08:40 | -13.69570 | 50.51314 | 39961 ft | 477 kts | 212° |
| 2026-04-18 08:41 | -13.75347 | 50.47991 | 39978 ft | 477 kts | 212° |
| 2026-04-18 08:41 | -13.81147 | 50.44655 | 39981 ft | 477 kts | 212° |
| 2026-04-18 08:42 | -13.86916 | 50.41336 | 39980 ft | 477 kts | 212° |
| 2026-04-18 08:42 | -13.92709 | 50.38003 | 39966 ft | 476 kts | 212° |
| 2026-04-18 08:43 | -13.98506 | 50.34665 | 39971 ft | 476 kts | 212° |
| 2026-04-18 08:43 | -14.04294 | 50.31331 | 39986 ft | 476 kts | 212° |
| 2026-04-18 08:44 | -14.10038 | 50.28019 | 39985 ft | 476 kts | 212° |
| 2026-04-18 08:44 | -14.15832 | 50.24677 | 39981 ft | 476 kts | 212° |
| 2026-04-18 08:45 | -14.21620 | 50.21337 | 39980 ft | 476 kts | 212° |
| 2026-04-18 08:45 | -14.27374 | 50.18014 | 39978 ft | 476 kts | 212° |
| 2026-04-18 08:46 | -14.33190 | 50.14710 | 39982 ft | 477 kts | 211° |
| 2026-04-18 08:46 | -14.39027 | 50.11458 | 39982 ft | 476 kts | 211° |
| 2026-04-18 08:47 | -14.44838 | 50.08217 | 39990 ft | 476 kts | 211° |
| 2026-04-18 08:47 | -14.50671 | 50.04950 | 39986 ft | 476 kts | 211° |
| 2026-04-18 08:48 | -14.56496 | 50.01680 | 39987 ft | 477 kts | 211° |
| 2026-04-18 08:48 | -14.62329 | 49.98403 | 39994 ft | 477 kts | 211° |
| 2026-04-18 08:49 | -14.68161 | 49.95126 | 39996 ft | 476 kts | 211° |
| 2026-04-18 08:49 | -14.73954 | 49.91869 | 40003 ft | 476 kts | 211° |
| 2026-04-18 08:50 | -14.79778 | 49.88591 | 40007 ft | 476 kts | 211° |
| 2026-04-18 08:50 | -14.85610 | 49.85307 | 40011 ft | 476 kts | 211° |
| 2026-04-18 08:51 | -14.91390 | 49.82052 | 40018 ft | 475 kts | 211° |
| 2026-04-18 08:51 | -14.97205 | 49.78775 | 40022 ft | 475 kts | 211° |
| 2026-04-18 08:52 | -15.02985 | 49.75509 | 40025 ft | 475 kts | 212° |
| 2026-04-18 08:52 | -15.08738 | 49.72139 | 40022 ft | 475 kts | 212° |
| 2026-04-18 08:53 | -15.14488 | 49.68732 | 40026 ft | 474 kts | 212° |
| 2026-04-18 08:53 | -15.20186 | 49.65370 | 40030 ft | 474 kts | 212° |
| 2026-04-18 08:54 | -15.25941 | 49.61986 | 40031 ft | 474 kts | 212° |
| 2026-04-18 08:54 | -15.31683 | 49.58612 | 40030 ft | 474 kts | 212° |
| 2026-04-18 08:55 | -15.37395 | 49.55253 | 40028 ft | 474 kts | 212° |
| 2026-04-18 08:55 | -15.43133 | 49.51877 | 40031 ft | 474 kts | 212° |
| 2026-04-18 08:56 | -15.48834 | 49.48520 | 40032 ft | 473 kts | 212° |
| 2026-04-18 08:56 | -15.54551 | 49.45150 | 40032 ft | 473 kts | 212° |
| 2026-04-18 08:57 | -15.63149 | 49.40079 | 40037 ft | 473 kts | 212° |
| 2026-04-18 08:57 | -15.68861 | 49.36706 | 40034 ft | 473 kts | 212° |
| 2026-04-18 08:58 | -15.74561 | 49.33340 | 40030 ft | 473 kts | 212° |
| 2026-04-18 08:58 | -15.80289 | 49.29955 | 40030 ft | 473 kts | 212° |
| 2026-04-18 08:59 | -15.85984 | 49.26586 | 40026 ft | 472 kts | 212° |
| 2026-04-18 08:59 | -15.91708 | 49.23199 | 40026 ft | 472 kts | 212° |
| 2026-04-18 09:00 | -15.96463 | 49.20383 | 40022 ft | 472 kts | 212° |
| 2026-04-18 09:00 | -16.02140 | 49.17019 | 40027 ft | 471 kts | 212° |
| 2026-04-18 09:01 | -16.07864 | 49.13662 | 40026 ft | 471 kts | 211° |
| 2026-04-18 09:01 | -16.13596 | 49.10324 | 40032 ft | 471 kts | 211° |
| 2026-04-18 09:02 | -16.19312 | 49.06989 | 40029 ft | 470 kts | 211° |
| 2026-04-18 09:02 | -16.24988 | 49.03671 | 40034 ft | 470 kts | 211° |
| 2026-04-18 09:03 | -16.30691 | 49.00334 | 40039 ft | 470 kts | 211° |
| 2026-04-18 09:03 | -16.36403 | 48.96988 | 40040 ft | 470 kts | 211° |
| 2026-04-18 09:04 | -16.42073 | 48.93665 | 40043 ft | 470 kts | 211° |
| 2026-04-18 09:04 | -16.47774 | 48.90323 | 40045 ft | 469 kts | 211° |
| 2026-04-18 09:05 | -16.53444 | 48.86995 | 40051 ft | 469 kts | 211° |
| 2026-04-18 09:05 | -16.59150 | 48.83645 | 40051 ft | 469 kts | 211° |
| 2026-04-18 09:06 | -16.64783 | 48.80244 | 40050 ft | 464 kts | 215° |
| 2026-04-18 09:06 | -16.70056 | 48.76461 | 40048 ft | 457 kts | 216° |
| 2026-04-18 09:07 | -16.75271 | 48.72749 | 40053 ft | 456 kts | 216° |
| 2026-04-18 09:07 | -16.80546 | 48.69033 | 40049 ft | 456 kts | 215° |
| 2026-04-18 09:08 | -16.85818 | 48.65331 | 40047 ft | 456 kts | 215° |
| 2026-04-18 09:08 | -16.91054 | 48.61654 | 40043 ft | 456 kts | 215° |
| 2026-04-18 09:09 | -16.96317 | 48.57957 | 40045 ft | 456 kts | 215° |
| 2026-04-18 09:09 | -17.01591 | 48.54251 | 40040 ft | 456 kts | 215° |
| 2026-04-18 09:10 | -17.06851 | 48.50553 | 40043 ft | 456 kts | 215° |
| 2026-04-18 09:10 | -17.12119 | 48.46846 | 40045 ft | 456 kts | 215° |
| 2026-04-18 09:11 | -17.17356 | 48.43158 | 40031 ft | 459 kts | 215° |
| 2026-04-18 09:11 | -17.22674 | 48.39410 | 39725 ft | 459 kts | 215° |
| 2026-04-18 09:12 | -17.25323 | 48.37543 | 39494 ft | 458 kts | 215° |
| 2026-04-18 09:12 | -17.27967 | 48.35677 | 39264 ft | 459 kts | 215° |
| 2026-04-18 09:12 | -17.30614 | 48.33810 | 38954 ft | 457 kts | 215° |
| 2026-04-18 09:12 | -17.33251 | 48.31949 | 38360 ft | 457 kts | 215° |
| 2026-04-18 09:13 | -17.35882 | 48.30092 | 37704 ft | 456 kts | 215° |
| 2026-04-18 09:13 | -17.38522 | 48.28226 | 37060 ft | 456 kts | 215° |
| 2026-04-18 09:13 | -17.41154 | 48.26367 | 36409 ft | 457 kts | 215° |
| 2026-04-18 09:13 | -17.43790 | 48.24504 | 35726 ft | 458 kts | 215° |
| 2026-04-18 09:14 | -17.46433 | 48.22634 | 35046 ft | 460 kts | 215° |
| 2026-04-18 09:14 | -17.49054 | 48.20781 | 34514 ft | 459 kts | 215° |
| 2026-04-18 09:14 | -17.51691 | 48.18916 | 33993 ft | 457 kts | 215° |
| 2026-04-18 09:14 | -17.54325 | 48.17051 | 33419 ft | 455 kts | 215° |
| 2026-04-18 09:15 | -17.56944 | 48.15197 | 32894 ft | 452 kts | 215° |
| 2026-04-18 09:15 | -17.59543 | 48.13356 | 32374 ft | 449 kts | 215° |
| 2026-04-18 09:15 | -17.62128 | 48.11525 | 31860 ft | 447 kts | 215° |
| 2026-04-18 09:15 | -17.64696 | 48.09704 | 31350 ft | 445 kts | 215° |
| 2026-04-18 09:16 | -17.67255 | 48.07890 | 30838 ft | 443 kts | 215° |
| 2026-04-18 09:16 | -17.69806 | 48.06081 | 30331 ft | 441 kts | 215° |
| 2026-04-18 09:16 | -17.72341 | 48.04282 | 29785 ft | 439 kts | 215° |
| 2026-04-18 09:16 | -17.74865 | 48.02490 | 29242 ft | 436 kts | 215° |
| 2026-04-18 09:17 | -17.77374 | 48.00708 | 28752 ft | 433 kts | 215° |
| 2026-04-18 09:17 | -17.79864 | 47.98939 | 28242 ft | 430 kts | 215° |
| 2026-04-18 09:17 | -17.82302 | 47.97207 | 27742 ft | 427 kts | 215° |
| 2026-04-18 09:17 | -17.84766 | 47.95456 | 27253 ft | 425 kts | 215° |
| 2026-04-18 09:18 | -17.87211 | 47.93718 | 26745 ft | 422 kts | 215° |
| 2026-04-18 09:18 | -17.89641 | 47.91989 | 26249 ft | 420 kts | 215° |
| 2026-04-18 09:18 | -17.92061 | 47.90268 | 25744 ft | 418 kts | 214° |
| 2026-04-18 09:18 | -17.94437 | 47.88577 | 25247 ft | 416 kts | 215° |
| 2026-04-18 09:19 | -17.96840 | 47.86866 | 24738 ft | 415 kts | 215° |
| 2026-04-18 09:19 | -17.99231 | 47.85163 | 24229 ft | 414 kts | 214° |
| 2026-04-18 09:19 | -18.01610 | 47.83468 | 23726 ft | 412 kts | 214° |
| 2026-04-18 09:19 | -18.03956 | 47.81795 | 23147 ft | 411 kts | 214° |
| 2026-04-18 09:20 | -18.06310 | 47.80117 | 22627 ft | 407 kts | 214° |
| 2026-04-18 09:20 | -18.08654 | 47.78445 | 22110 ft | 404 kts | 214° |
| 2026-04-18 09:20 | -18.10978 | 47.76788 | 21605 ft | 401 kts | 214° |
| 2026-04-18 09:20 | -18.13286 | 47.75140 | 21099 ft | 398 kts | 214° |
| 2026-04-18 09:21 | -18.15541 | 47.73531 | 20602 ft | 396 kts | 214° |
| 2026-04-18 09:21 | -18.17818 | 47.71905 | 20096 ft | 393 kts | 214° |
| 2026-04-18 09:21 | -18.20083 | 47.70286 | 19599 ft | 391 kts | 214° |
| 2026-04-18 09:21 | -18.22330 | 47.68680 | 19103 ft | 389 kts | 214° |
| 2026-04-18 09:22 | -18.24542 | 47.67099 | 18614 ft | 387 kts | 214° |
| 2026-04-18 09:22 | -18.26766 | 47.65509 | 18084 ft | 385 kts | 214° |
| 2026-04-18 09:22 | -18.28976 | 47.63929 | 17574 ft | 381 kts | 214° |
| 2026-04-18 09:22 | -18.31160 | 47.62367 | 17084 ft | 378 kts | 214° |
| 2026-04-18 09:23 | -18.33329 | 47.60815 | 16609 ft | 374 kts | 214° |
| 2026-04-18 09:23 | -18.35448 | 47.59299 | 16130 ft | 371 kts | 214° |
| 2026-04-18 09:23 | -18.37498 | 47.57828 | 15678 ft | 367 kts | 214° |
| 2026-04-18 09:23 | -18.39482 | 47.56116 | 15141 ft | 366 kts | 225° |
| 2026-04-18 09:24 | -18.41232 | 47.54163 | 14635 ft | 364 kts | 227° |
| 2026-04-18 09:24 | -18.42913 | 47.52211 | 14178 ft | 362 kts | 227° |
| 2026-04-18 09:24 | -18.44597 | 47.50257 | 13706 ft | 359 kts | 227° |
| 2026-04-18 09:24 | -18.46269 | 47.48327 | 13228 ft | 354 kts | 227° |
| 2026-04-18 09:25 | -18.47922 | 47.46422 | 12787 ft | 349 kts | 227° |
| 2026-04-18 09:25 | -18.49551 | 47.44546 | 12346 ft | 345 kts | 227° |
| 2026-04-18 09:25 | -18.51161 | 47.42694 | 11927 ft | 340 kts | 227° |
| 2026-04-18 09:25 | -18.52734 | 47.40884 | 11505 ft | 336 kts | 227° |
| 2026-04-18 09:26 | -18.54306 | 47.39076 | 11085 ft | 332 kts | 227° |
| 2026-04-18 09:26 | -18.55842 | 47.37308 | 10932 ft | 320 kts | 227° |
| 2026-04-18 09:26 | -18.57324 | 47.35601 | 10806 ft | 308 kts | 227° |
| 2026-04-18 09:26 | -18.58725 | 47.33988 | 10676 ft | 297 kts | 227° |
| 2026-04-18 09:27 | -18.60115 | 47.32388 | 10359 ft | 294 kts | 227° |
| 2026-04-18 09:27 | -18.61460 | 47.30839 | 10032 ft | 282 kts | 227° |
| 2026-04-18 09:27 | -18.62827 | 47.29264 | 9795 ft | 297 kts | 227° |
| 2026-04-18 09:27 | -18.64227 | 47.27649 | 9673 ft | 297 kts | 227° |
| 2026-04-18 09:28 | -18.65622 | 47.26041 | 9223 ft | 297 kts | 227° |
| 2026-04-18 09:28 | -18.67084 | 47.24487 | 8753 ft | 298 kts | 219° |
| 2026-04-18 09:28 | -18.68877 | 47.23550 | 8596 ft | 286 kts | 194° |
| 2026-04-18 09:28 | -18.70793 | 47.23167 | 8469 ft | 275 kts | 188° |
| 2026-04-18 09:29 | -18.72652 | 47.22904 | 8354 ft | 264 kts | 184° |
| 2026-04-18 09:29 | -18.74412 | 47.23178 | 8231 ft | 251 kts | 153° |
| 2026-04-18 09:29 | -18.75671 | 47.24351 | 8137 ft | 238 kts | 123° |
| 2026-04-18 09:29 | -18.76408 | 47.25862 | 7998 ft | 229 kts | 107° |
| 2026-04-18 09:30 | -18.76685 | 47.27478 | 7762 ft | 225 kts | 95° |
| 2026-04-18 09:30 | -18.76872 | 47.29115 | 7459 ft | 223 kts | 99° |
| 2026-04-18 09:30 | -18.77140 | 47.30723 | 7113 ft | 219 kts | 99° |
| 2026-04-18 09:30 | -18.77373 | 47.32271 | 6826 ft | 208 kts | 98° |
| 2026-04-18 09:31 | -18.77584 | 47.33722 | 6580 ft | 197 kts | 98° |
| 2026-04-18 09:31 | -18.77794 | 47.35113 | 6318 ft | 186 kts | 98° |
| 2026-04-18 09:31 | -18.77988 | 47.36422 | 6077 ft | 175 kts | 98° |
| 2026-04-18 09:31 | -18.78171 | 47.37652 | 5870 ft | 164 kts | 98° |
| 2026-04-18 09:32 | -18.78340 | 47.38815 | 5636 ft | 156 kts | 98° |
| 2026-04-18 09:32 | -18.78495 | 47.39916 | 5450 ft | 150 kts | 98° |
| 2026-04-18 09:32 | -18.78662 | 47.40995 | 5275 ft | 148 kts | 100° |
| 2026-04-18 09:32 | -18.78835 | 47.42067 | 5082 ft | 148 kts | 98° |
| 2026-04-18 09:33 | -18.78975 | 47.43136 | 4936 ft | 149 kts | 97° |
| 2026-04-18 09:33 | -18.79153 | 47.44232 | 4716 ft | 152 kts | 97° |
| 2026-04-18 09:33 | -18.79301 | 47.45352 | 4457 ft | 154 kts | 97° |
| 2026-04-18 09:33 | -18.79471 | 47.46443 | 4241 ft | 148 kts | 97° |
| 2026-04-18 09:34 | -18.79624 | 47.47465 | 4169 ft | 123 kts | 100° |
| 2026-04-18 09:34 | -18.79705 | 47.47975 | 4170 ft | 26 kts | 99° |
| 2026-04-18 09:34 | -18.79747 | 47.48110 | 4170 ft | 15 kts | 149° |
| 2026-04-18 09:34 | -18.79825 | 47.48112 | 4171 ft | 9 kts | 187° |
| 2026-04-18 09:35 | -18.79885 | 47.48100 | 4172 ft | 8 kts | 205° |
| 2026-04-18 09:35 | -18.79901 | 47.48051 | 4172 ft | 8 kts | 275° |
| 2026-04-18 09:35 | -18.79894 | 47.47991 | 4172 ft | 9 kts | 278° |
| 2026-04-18 09:35 | -18.79910 | 47.47937 | 4172 ft | 7 kts | 209° |
| 2026-04-18 09:36 | -18.79961 | 47.47923 | 4172 ft | 6 kts | 189° |
| 2026-04-18 09:36 | -18.79977 | 47.47920 | 4172 ft | 1 kts | 190° |
| 2026-04-18 09:36 | -18.79984 | 47.47919 | 4172 ft | 1 kts | 189° |